Time;durP1;ratioP1;P1;durP2;ratioP2;P2;SDS_P1;SDS_P2;PMS_P1;PMS_P2;Temp;Humidity;BMP_temperature;BMP_pressure;BME280_temperature;BME280_humidity;BME280_pressure;Samples;Min_cycle;Max_cycle;Signal;HPM_P1;HPM_P2
2021/11/29 00:01:14;;;;;;;34.20;26.88;;;;;;;;;;5092339;28;20020;-76
2021/11/29 00:03:40;;;;;;;25.73;21.20;;;;;;;;;;5093447;28;20036;-76
2021/11/29 00:06:07;;;;;;;18.70;14.43;;;;;;;;;;5093411;28;20028;-76
2021/11/29 00:08:33;;;;;;;16.20;11.90;;;;;;;;;;5093756;28;20039;-75
2021/11/29 00:10:59;;;;;;;10.85;7.95;;;;;;;;;;5093432;28;20379;-76
2021/11/29 00:13:25;;;;;;;7.53;5.85;;;;;;;;;;5093426;28;20027;-76
2021/11/29 00:15:51;;;;;;;5.32;4.80;;;;;;;;;;5093408;28;20486;-76
2021/11/29 00:18:17;;;;;;;7.88;5.35;;;;;;;;;;5093000;28;20371;-76
2021/11/29 00:20:44;;;;;;;10.70;5.95;;;;;;;;;;5093207;28;20447;-75
2021/11/29 00:23:14;;;;;;;8.48;6.45;;;;;;;;;;5092890;28;20067;-75
2021/11/29 00:25:41;;;;;;;8.23;5.82;;;;;;;;;;5093222;28;20487;-75
2021/11/29 00:28:09;;;;;;;6.95;4.88;;;;;;;;;;5092883;28;20455;-75
2021/11/29 00:30:36;;;;;;;5.45;4.22;;;;;;;;;;5093330;28;20028;-75
2021/11/29 00:33:03;;;;;;;6.13;3.75;;;;;;;;;;5092657;28;20549;-76
2021/11/29 00:35:29;;;;;;;6.15;4.10;;;;;;;;;;5093227;28;20062;-75
2021/11/29 00:37:55;;;;;;;13.32;8.68;;;;;;;;;;5091682;28;20048;-75
2021/11/29 00:40:21;;;;;;;12.20;8.18;;;;;;;;;;5092639;28;20031;-75
2021/11/29 00:42:47;;;;;;;21.15;14.55;;;;;;;;;;5092804;28;20505;-75
2021/11/29 00:45:13;;;;;;;19.50;16.33;;;;;;;;;;5092727;28;20047;-75
2021/11/29 00:47:40;;;;;;;27.63;19.63;;;;;;;;;;5092717;28;20531;-75
2021/11/29 00:50:08;;;;;;;18.63;14.80;;;;;;;;;;5092663;28;20032;-76
2021/11/29 00:52:34;;;;;;;14.77;11.50;;;;;;;;;;5092661;28;20020;-75
2021/11/29 00:55:00;;;;;;;16.73;12.38;;;;;;;;;;5092690;28;20035;-75
2021/11/29 00:57:26;;;;;;;14.80;11.40;;;;;;;;;;5092131;28;20028;-76
2021/11/29 00:59:53;;;;;;;11.40;10.15;;;;;;;;;;5092566;28;20028;-75
2021/11/29 01:02:20;;;;;;;24.98;21.80;;;;;;;;;;5092184;28;20043;-76
2021/11/29 01:04:46;;;;;;;18.45;14.25;;;;;;;;;;5091821;28;20043;-76
2021/11/29 01:07:12;;;;;;;13.85;10.27;;;;;;;;;;5092418;28;20093;-76
2021/11/29 01:09:39;;;;;;;24.67;16.75;;;;;;;;;;5092537;28;20024;-76
2021/11/29 01:12:05;;;;;;;18.08;13.93;;;;;;;;;;5092652;28;20085;-76
2021/11/29 01:14:32;;;;;;;13.88;10.52;;;;;;;;;;5092203;28;20028;-76
2021/11/29 01:16:58;;;;;;;14.23;11.27;;;;;;;;;;5092413;28;20024;-75
2021/11/29 01:19:24;;;;;;;9.07;6.90;;;;;;;;;;5092104;28;20024;-76
2021/11/29 01:21:50;;;;;;;13.18;9.45;;;;;;;;;;5092314;28;20360;-76
2021/11/29 01:24:16;;;;;;;11.93;8.65;;;;;;;;;;5092033;28;20032;-76
2021/11/29 01:26:42;;;;;;;4.38;2.90;;;;;;;;;;5092398;28;20032;-76
2021/11/29 01:29:08;;;;;;;6.53;5.03;;;;;;;;;;5092220;28;20371;-76
2021/11/29 01:31:35;;;;;;;4.70;3.00;;;;;;;;;;5091887;28;20032;-76
2021/11/29 01:34:01;;;;;;;2.88;1.75;;;;;;;;;;5092094;28;20044;-77
2021/11/29 01:36:28;;;;;;;2.75;1.70;;;;;;;;;;5091961;28;20131;-77
2021/11/29 01:38:54;;;;;;;3.92;2.08;;;;;;;;;;5092128;28;20024;-76
2021/11/29 01:41:20;;;;;;;1.98;1.42;;;;;;;;;;5091963;28;20024;-76
2021/11/29 01:43:48;;;;;;;4.75;2.47;;;;;;;;;;5091876;28;20040;-75
2021/11/29 01:46:16;;;;;;;4.60;2.10;;;;;;;;;;5092177;28;20055;-76
2021/11/29 01:48:43;;;;;;;1.42;1.08;;;;;;;;;;5091873;28;20459;-76
2021/11/29 01:51:11;;;;;;;2.72;1.05;;;;;;;;;;5092198;28;20099;-76
2021/11/29 01:53:37;;;;;;;2.50;2.08;;;;;;;;;;5091792;28;20542;-76
2021/11/29 01:56:04;;;;;;;4.57;3.55;;;;;;;;;;5091912;28;20376;-77
2021/11/29 01:58:32;;;;;;;6.22;3.45;;;;;;;;;;5091797;28;20047;-76
2021/11/29 02:00:59;;;;;;;5.60;3.33;;;;;;;;;;5092119;28;20099;-77
2021/11/29 02:03:26;;;;;;;4.28;2.70;;;;;;;;;;5091594;28;20031;-76
2021/11/29 02:05:52;;;;;;;4.07;2.75;;;;;;;;;;5091991;28;20123;-75
2021/11/29 02:08:19;;;;;;;3.38;2.65;;;;;;;;;;5091898;28;20368;-77
2021/11/29 02:10:45;;;;;;;3.58;3.05;;;;;;;;;;5091705;28;20031;-76
2021/11/29 02:13:11;;;;;;;5.18;3.30;;;;;;;;;;5091984;28;20040;-76
2021/11/29 02:15:40;;;;;;;4.43;3.00;;;;;;;;;;5093379;28;20113;-77
2021/11/29 02:18:07;;;;;;;4.43;3.08;;;;;;;;;;5095672;28;20039;-75
2021/11/29 02:20:34;;;;;;;5.00;3.50;;;;;;;;;;5095383;28;20024;-76
2021/11/29 02:23:01;;;;;;;7.40;4.70;;;;;;;;;;5095494;28;20486;-76
2021/11/29 02:25:28;;;;;;;6.75;4.00;;;;;;;;;;5095370;28;20028;-75
2021/11/29 02:27:54;;;;;;;5.53;5.03;;;;;;;;;;5095597;28;20505;-75
2021/11/29 02:30:21;;;;;;;6.57;4.20;;;;;;;;;;5095399;28;20028;-76
2021/11/29 02:32:48;;;;;;;5.38;2.85;;;;;;;;;;5095210;28;20056;-76
2021/11/29 02:35:14;;;;;;;2.85;1.98;;;;;;;;;;5095694;28;20055;-76
2021/11/29 02:37:40;;;;;;;2.45;1.40;;;;;;;;;;5094989;28;20367;-76
2021/11/29 02:40:06;;;;;;;2.17;1.42;;;;;;;;;;5095344;28;20036;-76
2021/11/29 02:42:32;;;;;;;2.22;0.90;;;;;;;;;;5095012;28;20028;-76
2021/11/29 02:44:59;;;;;;;1.92;1.13;;;;;;;;;;5095185;28;20032;-76
2021/11/29 02:47:25;;;;;;;2.75;1.48;;;;;;;;;;5095066;28;20020;-76
2021/11/29 02:49:51;;;;;;;2.47;1.17;;;;;;;;;;5094951;28;20089;-76
2021/11/29 02:52:18;;;;;;;1.58;0.75;;;;;;;;;;5095149;28;20064;-76
2021/11/29 02:54:45;;;;;;;2.22;0.90;;;;;;;;;;5094882;28;20411;-76
2021/11/29 02:57:16;;;;;;;1.65;0.60;;;;;;;;;;5095066;28;20049;-76
2021/11/29 02:59:42;;;;;;;1.85;0.80;;;;;;;;;;5094808;28;20032;-76
2021/11/29 03:02:10;;;;;;;1.98;1.20;;;;;;;;;;5095014;28;20024;-76
2021/11/29 03:04:37;;;;;;;1.77;0.82;;;;;;;;;;5094862;28;20039;-75
2021/11/29 03:07:04;;;;;;;2.42;1.30;;;;;;;;;;5094892;28;20445;-77
2021/11/29 03:09:30;;;;;;;1.80;1.13;;;;;;;;;;5095132;28;20028;-77
2021/11/29 03:11:57;;;;;;;2.78;1.38;;;;;;;;;;5094788;28;20023;-76
2021/11/29 03:14:24;;;;;;;1.00;0.50;;;;;;;;;;5094967;28;20051;-78
2021/11/29 03:16:54;;;;;;;0.85;0.50;;;;;;;;;;5094808;28;20447;-78
2021/11/29 03:19:20;;;;;;;2.30;1.08;;;;;;;;;;5094981;28;20016;-78
2021/11/29 03:21:46;;;;;;;2.53;1.45;;;;;;;;;;5094550;28;20032;-76
2021/11/29 03:24:12;;;;;;;2.40;1.02;;;;;;;;;;5094587;28;20039;-77
2021/11/29 03:26:39;;;;;;;3.67;2.08;;;;;;;;;;5093628;28;20031;-77
2021/11/29 03:29:06;;;;;;;2.88;1.42;;;;;;;;;;5094544;28;20036;-77
2021/11/29 03:31:33;;;;;;;2.03;1.17;;;;;;;;;;5094267;28;20050;-77
2021/11/29 03:34:00;;;;;;;2.60;1.08;;;;;;;;;;5094206;28;20059;-77
2021/11/29 03:36:30;;;;;;;2.13;1.10;;;;;;;;;;5094222;28;20084;-77
2021/11/29 03:38:57;;;;;;;1.95;0.90;;;;;;;;;;5094299;28;20036;-77
2021/11/29 03:41:24;;;;;;;1.55;0.85;;;;;;;;;;5094268;28;20021;-78
2021/11/29 03:43:50;;;;;;;1.77;1.40;;;;;;;;;;5094311;28;20040;-77
2021/11/29 03:46:16;;;;;;;1.55;1.10;;;;;;;;;;5094252;28;20028;-77
2021/11/29 03:48:42;;;;;;;2.20;1.63;;;;;;;;;;5093888;28;20028;-77
2021/11/29 03:51:08;;;;;;;2.05;1.35;;;;;;;;;;5094088;28;20028;-77
2021/11/29 03:53:35;;;;;;;3.00;2.05;;;;;;;;;;5093828;28;20047;-76
2021/11/29 03:56:01;;;;;;;2.65;1.80;;;;;;;;;;5093966;28;20047;-77
2021/11/29 03:58:28;;;;;;;2.17;1.80;;;;;;;;;;5093880;28;20032;-77
2021/11/29 04:00:54;;;;;;;3.58;2.03;;;;;;;;;;5093723;28;20031;-76
2021/11/29 04:03:20;;;;;;;1.58;1.20;;;;;;;;;;5093815;28;20039;-76
2021/11/29 04:05:47;;;;;;;2.83;1.60;;;;;;;;;;5093491;28;20051;-76
2021/11/29 04:08:13;;;;;;;3.45;1.85;;;;;;;;;;5093831;28;20031;-76
2021/11/29 04:10:39;;;;;;;2.15;1.45;;;;;;;;;;5093519;28;20513;-76
2021/11/29 04:13:05;;;;;;;1.90;1.50;;;;;;;;;;5093661;28;20471;-76
2021/11/29 04:15:31;;;;;;;2.08;1.10;;;;;;;;;;5093413;28;20024;-77
2021/11/29 04:17:58;;;;;;;2.45;1.17;;;;;;;;;;5093347;28;20036;-76
2021/11/29 04:20:24;;;;;;;2.40;1.63;;;;;;;;;;5093714;28;20374;-77
2021/11/29 04:22:50;;;;;;;7.10;5.90;;;;;;;;;;5091829;28;20360;-77
2021/11/29 04:25:18;;;;;;;2.75;1.98;;;;;;;;;;5093562;28;20039;-76
2021/11/29 04:27:45;;;;;;;6.05;3.95;;;;;;;;;;5093150;28;20021;-77
2021/11/29 04:30:16;;;;;;;5.57;2.65;;;;;;;;;;5093479;28;20055;-77
2021/11/29 04:32:42;;;;;;;2.88;1.88;;;;;;;;;;5092824;28;20119;-77
2021/11/29 04:35:08;;;;;;;12.88;7.03;;;;;;;;;;5093347;28;20047;-77
2021/11/29 04:37:35;;;;;;;7.65;3.88;;;;;;;;;;5093231;28;20059;-77
2021/11/29 04:40:01;;;;;;;9.90;6.85;;;;;;;;;;5092272;28;20119;-77
2021/11/29 04:42:27;;;;;;;10.35;6.97;;;;;;;;;;5093392;28;20043;-77
2021/11/29 04:44:53;;;;;;;5.70;4.20;;;;;;;;;;5092913;28;20081;-78
2021/11/29 04:47:20;;;;;;;7.85;5.07;;;;;;;;;;5093072;28;20479;-77
2021/11/29 04:49:46;;;;;;;47.70;33.28;;;;;;;;;;5092872;28;20078;-77
2021/11/29 04:52:12;;;;;;;19.00;13.48;;;;;;;;;;5092963;28;20069;-76
2021/11/29 04:54:38;;;;;;;13.05;7.90;;;;;;;;;;5092729;28;20116;-77
2021/11/29 04:57:05;;;;;;;17.70;13.23;;;;;;;;;;5091637;28;20380;-77
2021/11/29 04:59:31;;;;;;;21.23;16.00;;;;;;;;;;5092772;28;20114;-76
2021/11/29 05:01:57;;;;;;;14.45;11.73;;;;;;;;;;5092475;28;20075;-77
2021/11/29 05:04:23;;;;;;;10.85;8.77;;;;;;;;;;5092803;28;20501;-77
2021/11/29 05:06:49;;;;;;;8.65;7.18;;;;;;;;;;5092700;28;20033;-77
2021/11/29 05:09:15;;;;;;;34.88;26.23;;;;;;;;;;5092710;28;20035;-77
2021/11/29 05:11:41;;;;;;;17.02;14.45;;;;;;;;;;5092772;28;20075;-77
2021/11/29 05:14:07;;;;;;;7.95;7.07;;;;;;;;;;5092441;28;20031;-77
2021/11/29 05:16:35;;;;;;;7.45;5.90;;;;;;;;;;5092925;28;20028;-77
2021/11/29 05:19:01;;;;;;;5.22;4.65;;;;;;;;;;5092385;28;20081;-78
2021/11/29 05:21:27;;;;;;;6.32;5.25;;;;;;;;;;5092634;28;20031;-77
2021/11/29 05:23:54;;;;;;;7.80;5.00;;;;;;;;;;5092213;28;20070;-77
2021/11/29 05:26:23;;;;;;;5.00;4.50;;;;;;;;;;5092554;28;20028;-78
2021/11/29 05:28:52;;;;;;;7.95;5.07;;;;;;;;;;5092281;28;20431;-77
2021/11/29 05:31:18;;;;;;;8.52;5.18;;;;;;;;;;5091216;28;20066;-77
2021/11/29 05:33:44;;;;;;;4.30;3.15;;;;;;;;;;5092232;28;20048;-77
2021/11/29 05:36:10;;;;;;;3.42;2.40;;;;;;;;;;5092344;28;20024;-77
2021/11/29 05:38:37;;;;;;;4.07;3.22;;;;;;;;;;5092375;28;20054;-77
2021/11/29 05:41:03;;;;;;;7.60;5.85;;;;;;;;;;5092375;28;20024;-77
2021/11/29 05:43:30;;;;;;;5.60;3.67;;;;;;;;;;5092372;28;20039;-78
2021/11/29 05:45:58;;;;;;;50.05;31.75;;;;;;;;;;5092149;28;20024;-78
2021/11/29 05:48:24;;;;;;;145.90;88.32;;;;;;;;;;5092653;28;20028;-78
2021/11/29 05:50:50;;;;;;;83.90;49.80;;;;;;;;;;5094899;28;20401;-78
2021/11/29 05:53:17;;;;;;;38.25;27.42;;;;;;;;;;5096716;28;20459;-78
2021/11/29 05:55:43;;;;;;;21.88;16.63;;;;;;;;;;5096629;28;20031;-78
2021/11/29 05:58:09;;;;;;;15.10;11.32;;;;;;;;;;5096352;28;20028;-78
2021/11/29 06:00:36;;;;;;;14.75;11.90;;;;;;;;;;5096518;28;20051;-77
2021/11/29 06:03:03;;;;;;;25.80;17.50;;;;;;;;;;5095987;28;20064;-78
2021/11/29 06:05:30;;;;;;;24.05;16.80;;;;;;;;;;5094757;28;20036;-78
2021/11/29 06:07:56;;;;;;;20.40;14.45;;;;;;;;;;5095952;28;20032;-78
2021/11/29 06:10:22;;;;;;;15.15;12.20;;;;;;;;;;5095890;28;20024;-78
2021/11/29 06:12:48;;;;;;;12.40;10.10;;;;;;;;;;5096223;28;20032;-78
2021/11/29 06:15:15;;;;;;;10.98;9.23;;;;;;;;;;5095992;28;20052;-78
2021/11/29 06:17:42;;;;;;;9.35;7.65;;;;;;;;;;5095875;28;20082;-79
2021/11/29 06:20:09;;;;;;;8.98;7.85;;;;;;;;;;5095316;28;20020;-79
2021/11/29 06:22:35;;;;;;;9.00;8.10;;;;;;;;;;5095366;28;20036;-79
2021/11/29 06:25:01;;;;;;;12.10;10.10;;;;;;;;;;5095323;28;20077;-79
2021/11/29 06:27:28;;;;;;;25.08;17.25;;;;;;;;;;5095588;28;20028;-79
2021/11/29 06:29:54;;;;;;;22.30;17.65;;;;;;;;;;5094639;28;20028;-78
2021/11/29 06:32:20;;;;;;;17.67;14.13;;;;;;;;;;5094336;28;20062;-77
2021/11/29 06:34:46;;;;;;;15.35;11.15;;;;;;;;;;5094078;28;20081;-77
2021/11/29 06:37:12;;;;;;;12.90;10.07;;;;;;;;;;5094534;28;20032;-78
2021/11/29 06:39:39;;;;;;;8.60;5.70;;;;;;;;;;5094812;28;20028;-77
2021/11/29 06:42:06;;;;;;;6.07;3.40;;;;;;;;;;5094935;28;20032;-79
2021/11/29 06:44:33;;;;;;;25.35;22.50;;;;;;;;;;5095667;28;20383;-76
2021/11/29 06:46:59;;;;;;;30.27;27.27;;;;;;;;;;5091596;28;20572;-79
2021/11/29 06:49:26;;;;;;;27.23;24.35;;;;;;;;;;5094095;28;20506;-75
2021/11/29 06:51:52;;;;;;;6.97;5.90;;;;;;;;;;5095199;28;20387;-77
2021/11/29 06:54:20;;;;;;;7.68;6.65;;;;;;;;;;5093943;28;20036;-79
2021/11/29 06:56:47;;;;;;;5.43;4.93;;;;;;;;;;5090610;28;20040;-76
2021/11/29 06:59:13;;;;;;;6.60;5.90;;;;;;;;;;5093227;28;20081;-78
2021/11/29 07:01:39;;;;;;;11.52;8.82;;;;;;;;;;5092491;28;20551;-76
2021/11/29 07:04:05;;;;;;;27.70;19.83;;;;;;;;;;5093992;28;20089;-78
2021/11/29 07:06:32;;;;;;;28.48;22.48;;;;;;;;;;5093716;28;20052;-78
2021/11/29 07:08:58;;;;;;;15.82;12.82;;;;;;;;;;5093585;28;20077;-79
2021/11/29 07:11:24;;;;;;;11.95;10.32;;;;;;;;;;5093788;28;20027;-81
2021/11/29 07:13:50;;;;;;;15.65;11.63;;;;;;;;;;5093764;28;20480;-77
2021/11/29 07:16:16;;;;;;;13.13;10.90;;;;;;;;;;5093291;28;20860;-79
2021/11/29 07:18:43;;;;;;;15.32;12.20;;;;;;;;;;5093750;28;20024;-77
2021/11/29 07:21:10;;;;;;;15.85;11.68;;;;;;;;;;5092753;28;20028;-78
2021/11/29 07:23:37;;;;;;;12.45;10.38;;;;;;;;;;5092342;28;20074;-77
2021/11/29 07:26:03;;;;;;;16.10;12.48;;;;;;;;;;5093100;28;20032;-77
2021/11/29 07:28:29;;;;;;;16.02;12.52;;;;;;;;;;5093270;28;20054;-78
2021/11/29 07:30:55;;;;;;;21.95;17.52;;;;;;;;;;5093442;28;20142;-77
2021/11/29 07:33:22;;;;;;;17.42;14.07;;;;;;;;;;5092593;28;20525;-77
2021/11/29 07:35:48;;;;;;;15.55;12.80;;;;;;;;;;5092966;28;20435;-78
2021/11/29 07:38:14;;;;;;;18.98;15.52;;;;;;;;;;5092984;28;20374;-77
2021/11/29 07:40:40;;;;;;;21.92;18.38;;;;;;;;;;5093171;28;20370;-77
2021/11/29 07:43:08;;;;;;;17.98;16.08;;;;;;;;;;5093316;28;20040;-78
2021/11/29 07:45:35;;;;;;;22.95;20.45;;;;;;;;;;5092434;28;20470;-78
2021/11/29 07:48:01;;;;;;;25.15;22.52;;;;;;;;;;5092562;28;20046;-76
2021/11/29 07:50:27;;;;;;;17.90;15.07;;;;;;;;;;5093053;28;20028;-78
2021/11/29 07:52:54;;;;;;;15.07;12.50;;;;;;;;;;5093052;28;20103;-77
2021/11/29 07:55:24;;;;;;;16.13;14.23;;;;;;;;;;5092528;28;20021;-78
2021/11/29 07:57:50;;;;;;;14.93;12.18;;;;;;;;;;5093073;28;20364;-78
2021/11/29 08:00:20;;;;;;;28.77;19.75;;;;;;;;;;5092896;28;20449;-78
2021/11/29 08:02:47;;;;;;;14.20;11.43;;;;;;;;;;5091686;28;20135;-79
2021/11/29 08:05:14;;;;;;;11.70;10.48;;;;;;;;;;5092719;28;20031;-79
2021/11/29 08:07:40;;;;;;;16.17;14.07;;;;;;;;;;5091972;28;20542;-80
2021/11/29 08:10:06;;;;;;;17.67;15.02;;;;;;;;;;5092664;28;20032;-77
2021/11/29 08:12:32;;;;;;;15.70;13.13;;;;;;;;;;5091881;28;20081;-78
2021/11/29 08:14:58;;;;;;;13.90;11.82;;;;;;;;;;5090781;28;20031;-76
2021/11/29 08:17:24;;;;;;;11.35;9.45;;;;;;;;;;5091023;28;20032;-77
2021/11/29 08:19:51;;;;;;;13.68;11.75;;;;;;;;;;5088691;28;20080;-78
2021/11/29 08:22:18;;;;;;;11.93;10.48;;;;;;;;;;5088831;28;20036;-78
2021/11/29 08:24:44;;;;;;;12.73;11.23;;;;;;;;;;5092106;28;20498;-77
2021/11/29 08:27:11;;;;;;;20.08;16.70;;;;;;;;;;5092414;28;20103;-78
2021/11/29 08:29:37;;;;;;;13.32;12.02;;;;;;;;;;5091534;28;20786;-79
2021/11/29 08:32:04;;;;;;;29.80;23.48;;;;;;;;;;5091710;28;20167;-78
2021/11/29 08:34:30;;;;;;;41.58;37.08;;;;;;;;;;5092134;28;20501;-77
2021/11/29 08:36:56;;;;;;;31.48;28.08;;;;;;;;;;5092687;28;20035;-78
2021/11/29 08:39:22;;;;;;;43.35;37.50;;;;;;;;;;5092200;28;20028;-78
2021/11/29 08:41:48;;;;;;;37.95;31.20;;;;;;;;;;5092412;28;20024;-78
2021/11/29 08:44:14;;;;;;;40.05;32.33;;;;;;;;;;5092062;28;20036;-79
2021/11/29 08:46:48;;;;;;;22.33;19.92;;;;;;;;;;5091781;28;20023;-78
2021/11/29 08:49:15;;;;;;;24.97;21.80;;;;;;;;;;5091294;28;20035;-79
2021/11/29 08:51:41;;;;;;;25.48;22.73;;;;;;;;;;5090459;28;20032;-80
2021/11/29 08:54:08;;;;;;;48.83;40.05;;;;;;;;;;5091811;28;20035;-78
2021/11/29 08:56:34;;;;;;;32.90;29.25;;;;;;;;;;5087009;28;20122;-79
2021/11/29 08:59:00;;;;;;;41.38;31.90;;;;;;;;;;5091480;28;20113;-81
2021/11/29 09:01:26;;;;;;;11.98;10.63;;;;;;;;;;5090084;28;20028;-79
2021/11/29 09:03:52;;;;;;;13.20;11.82;;;;;;;;;;5091273;28;20063;-79
2021/11/29 09:06:19;;;;;;;12.70;10.15;;;;;;;;;;5090738;28;20028;-81
2021/11/29 09:08:45;;;;;;;12.23;10.15;;;;;;;;;;5090875;28;20390;-79
2021/11/29 09:11:11;;;;;;;18.73;14.38;;;;;;;;;;5090632;28;20057;-81
2021/11/29 09:13:38;;;;;;;12.38;10.05;;;;;;;;;;5090251;28;20036;-80
2021/11/29 09:16:05;;;;;;;10.13;7.10;;;;;;;;;;5090334;28;20039;-80
2021/11/29 09:18:31;;;;;;;25.13;18.00;;;;;;;;;;5089733;28;20036;-79
2021/11/29 09:20:59;;;;;;;15.85;13.30;;;;;;;;;;5091391;28;20486;-79
2021/11/29 09:23:25;;;;;;;12.43;9.40;;;;;;;;;;5091043;28;20040;-78
2021/11/29 09:25:52;;;;;;;14.73;12.02;;;;;;;;;;5088966;28;20028;-79
2021/11/29 09:28:18;;;;;;;19.42;17.33;;;;;;;;;;5074960;28;20031;-78
2021/11/29 09:30:46;;;;;;;65.35;54.83;;;;;;;;;;5079540;28;20482;-79
2021/11/29 09:33:12;;;;;;;30.33;24.45;;;;;;;;;;5074745;28;20049;-79
2021/11/29 09:35:38;;;;;;;17.65;14.30;;;;;;;;;;5082717;28;20107;-80
2021/11/29 09:38:05;;;;;;;17.30;15.25;;;;;;;;;;5086510;28;20023;-81
2021/11/29 09:40:35;;;;;;;15.73;12.90;;;;;;;;;;5090650;28;20027;-80
2021/11/29 09:43:06;;;;;;;11.82;10.50;;;;;;;;;;5087341;28;20498;-80
2021/11/29 09:45:32;;;;;;;12.07;8.77;;;;;;;;;;5090044;28;20031;-80
2021/11/29 09:47:59;;;;;;;7.53;6.82;;;;;;;;;;5090267;28;20040;-81
2021/11/29 09:50:26;;;;;;;13.30;11.55;;;;;;;;;;5090762;28;20024;-77
2021/11/29 09:52:52;;;;;;;19.95;17.55;;;;;;;;;;5089816;28;20063;-79
2021/11/29 09:55:24;;;;;;;18.35;15.98;;;;;;;;;;5090367;28;20032;-78
2021/11/29 09:57:51;;;;;;;15.43;12.95;;;;;;;;;;5088303;28;20020;-79
2021/11/29 10:00:21;;;;;;;31.63;27.20;;;;;;;;;;5088970;28;20494;-79
2021/11/29 10:02:49;;;;;;;13.25;11.85;;;;;;;;;;5090140;28;20036;-80
2021/11/29 10:05:15;;;;;;;9.93;7.97;;;;;;;;;;5090195;28;20066;-80
2021/11/29 10:07:47;;;;;;;7.70;6.65;;;;;;;;;;5091073;28;20027;-80
2021/11/29 10:10:32;;;;;;;5.10;3.63;;;;;;;;;;5090209;28;20020;-80
2021/11/29 10:13:16;;;;;;;5.68;4.93;;;;;;;;;;5088503;28;20434;-82
2021/11/29 10:15:42;;;;;;;;;;;;;;;;;;5090242;28;20039;-81
2021/11/29 10:18:16;;;;;;;7.03;5.18;;;;;;;;;;5089511;28;19908;-80
2021/11/29 10:20:52;;;;;;;9.60;6.22;;;;;;;;;;5088716;28;20051;-79
2021/11/29 10:23:44;;;;;;;5.32;3.92;;;;;;;;;;5088072;28;20039;-81
2021/11/29 10:26:21;;;;;;;11.73;9.65;;;;;;;;;;5083619;28;20395;-81
2021/11/29 10:28:54;;;;;;;15.32;8.88;;;;;;;;;;5089124;28;20027;-81
2021/11/29 10:31:22;;;;;;;29.33;20.50;;;;;;;;;;5089129;28;20043;-78
2021/11/29 10:33:53;;;;;;;14.73;10.25;;;;;;;;;;5086949;28;20051;-76
2021/11/29 10:36:20;;;;;;;11.45;10.25;;;;;;;;;;5091200;28;20027;-82
2021/11/29 10:38:51;;;;;;;11.25;7.55;;;;;;;;;;5094138;28;20113;-82
2021/11/29 10:41:22;;;;;;;8.93;6.47;;;;;;;;;;5091784;28;20039;-80
2021/11/29 10:43:48;;;;;;;8.35;6.07;;;;;;;;;;5093625;28;20081;-82
2021/11/29 10:46:18;;;;;;;10.18;8.43;;;;;;;;;;5091815;28;20493;-83
2021/11/29 10:48:44;;;;;;;5.63;4.10;;;;;;;;;;5093713;28;20030;-80
2021/11/29 10:51:12;;;;;;;8.98;5.75;;;;;;;;;;5093288;28;20016;-80
2021/11/29 10:53:57;;;;;;;5.07;3.72;;;;;;;;;;5093055;28;20117;-84
2021/11/29 10:56:24;;;;;;;1.20;0.73;;;;;;;;;;5090942;28;20032;-84
2021/11/29 10:58:51;;;;;;;1.40;0.73;;;;;;;;;;5093712;28;20031;-82
2021/11/29 11:01:18;;;;;;;4.55;3.50;;;;;;;;;;5085356;28;20502;-84
2021/11/29 11:03:52;;;;;;;1.50;1.00;;;;;;;;;;5092597;28;20036;-83
2021/11/29 11:06:25;;;;;;;1.40;1.00;;;;;;;;;;5093359;28;20024;-81
2021/11/29 11:08:51;;;;;;;1.52;1.10;;;;;;;;;;5092097;28;20035;-83
2021/11/29 11:11:31;;;;;;;2.08;1.38;;;;;;;;;;5091825;28;20058;-81
2021/11/29 11:14:08;;;;;;;3.17;1.30;;;;;;;;;;5093073;28;20031;-82
2021/11/29 11:16:43;;;;;;;1.35;0.63;;;;;;;;;;5093309;28;20081;-78
2021/11/29 11:19:10;;;;;;;2.70;0.68;;;;;;;;;;5093690;28;20055;-82
2021/11/29 11:21:36;;;;;;;1.85;1.27;;;;;;;;;;5093279;28;20086;-83
2021/11/29 11:24:19;;;;;;;1.67;0.90;;;;;;;;;;5092249;28;20478;-84
2021/11/29 11:26:46;;;;;;;1.20;0.63;;;;;;;;;;5074401;28;20111;-87
2021/11/29 11:29:13;;;;;;;2.17;0.95;;;;;;;;;;5090046;28;20024;-86
2021/11/29 11:31:39;;;;;;;1.90;0.95;;;;;;;;;;5093564;28;20111;-85
2021/11/29 11:34:05;;;;;;;0.82;0.50;;;;;;;;;;5092575;28;20027;-81
2021/11/29 11:36:32;;;;;;;1.15;0.60;;;;;;;;;;5092984;28;20100;-81
2021/11/29 11:39:07;;;;;;;1.98;0.70;;;;;;;;;;5093458;28;20021;-82
2021/11/29 11:41:33;;;;;;;1.30;0.40;;;;;;;;;;5092866;28;20074;-83
2021/11/29 11:44:04;;;;;;;1.48;0.50;;;;;;;;;;5091377;28;20117;-82
2021/11/29 11:46:30;;;;;;;2.05;1.10;;;;;;;;;;5093104;28;20019;-84
2021/11/29 11:48:59;;;;;;;6.75;4.95;;;;;;;;;;5092291;28;20103;-84
2021/11/29 11:51:26;;;;;;;2.42;1.38;;;;;;;;;;5093146;28;20036;-87
2021/11/29 11:53:52;;;;;;;2.90;1.35;;;;;;;;;;5091885;28;20093;-84
2021/11/29 11:56:18;;;;;;;1.83;1.20;;;;;;;;;;5090130;28;20040;-85
2021/11/29 11:58:54;;;;;;;2.63;1.23;;;;;;;;;;5091431;28;20024;-77
2021/11/29 12:01:24;;;;;;;1.17;0.60;;;;;;;;;;5093233;28;20032;-76
2021/11/29 12:03:50;;;;;;;1.33;0.82;;;;;;;;;;5092697;28;20032;-81
2021/11/29 12:06:17;;;;;;;1.17;0.93;;;;;;;;;;5092652;28;20126;-74
2021/11/29 12:08:49;;;;;;;3.63;2.03;;;;;;;;;;5092323;28;20450;-83
2021/11/29 12:11:32;;;;;;;8.85;5.30;;;;;;;;;;5093050;28;20032;-85
2021/11/29 12:14:18;;;;;;;1.42;0.65;;;;;;;;;;5092655;28;20024;-83
2021/11/29 12:16:48;;;;;;;2.25;0.40;;;;;;;;;;5092466;28;20082;-83
2021/11/29 12:19:14;;;;;;;1.17;0.30;;;;;;;;;;5091673;28;20495;-84
2021/11/29 12:21:42;;;;;;;0.43;0.30;;;;;;;;;;5091916;28;20028;-85
2021/11/29 12:24:17;;;;;;;1.63;0.70;;;;;;;;;;5091463;28;20121;-82
2021/11/29 12:26:46;;;;;;;2.92;1.17;;;;;;;;;;5090561;28;20398;-83
2021/11/29 12:29:22;;;;;;;1.35;0.55;;;;;;;;;;5091767;28;20103;-85
2021/11/29 12:31:48;;;;;;;1.17;0.68;;;;;;;;;;5092101;28;20024;-85
2021/11/29 12:34:15;;;;;;;0.60;0.30;;;;;;;;;;5093104;28;20035;-86
2021/11/29 12:36:59;;;;;;;2.58;0.30;;;;;;;;;;5086866;28;20108;-84
2021/11/29 12:39:44;;;;;;;1.02;0.50;;;;;;;;;;5105373;28;20396;-84
2021/11/29 12:42:22;;;;;;;1.40;0.88;;;;;;;;;;5087591;28;20423;-83
2021/11/29 12:44:52;;;;;;;1.67;0.40;;;;;;;;;;5071770;28;20043;-83
2021/11/29 12:47:25;;;;;;;1.20;0.45;;;;;;;;;;5091754;28;20024;-77
2021/11/29 12:49:57;;;;;;;1.73;0.95;;;;;;;;;;5093099;28;20114;-83
2021/11/29 12:52:44;;;;;;;1.05;0.57;;;;;;;;;;5092311;28;20028;-82
2021/11/29 12:55:29;;;;;;;1.05;0.60;;;;;;;;;;5092870;28;20036;-85
2021/11/29 12:58:14;;;;;;;2.70;1.10;;;;;;;;;;5089681;28;20024;-84
2021/11/29 13:00:45;;;;;;;2.40;1.33;;;;;;;;;;5107433;28;20436;-87
2021/11/29 13:03:11;;;;;;;2.80;1.60;;;;;;;;;;5091333;28;20048;-83
2021/11/29 13:05:41;;;;;;;1.00;0.60;;;;;;;;;;5091143;28;20378;-84
2021/11/29 13:08:39;;;;;;;1.23;0.63;;;;;;;;;;5089986;28;20050;-85
2021/11/29 13:14:25;;;;;;;2.90;1.90;;;;;;;;;;5091091;28;20085;-84
2021/11/29 13:16:59;;;;;;;1.48;0.80;;;;;;;;;;5085440;28;20044;-84
2021/11/29 13:19:27;;;;;;;2.80;2.03;;;;;;;;;;5072421;28;20043;-84
2021/11/29 13:25:00;;;;;;;2.13;1.52;;;;;;;;;;5092051;28;20031;-83
2021/11/29 13:27:27;;;;;;;1.23;1.13;;;;;;;;;;5091271;28;20203;-83
2021/11/29 13:30:02;;;;;;;1.00;0.70;;;;;;;;;;5092434;28;20495;-83
2021/11/29 13:32:30;;;;;;;0.50;0.30;;;;;;;;;;5090936;28;20101;-81
2021/11/29 13:35:05;;;;;;;0.82;0.30;;;;;;;;;;5085003;28;20036;-83
2021/11/29 13:37:32;;;;;;;0.77;0.30;;;;;;;;;;5072166;28;20101;-81
2021/11/29 13:40:00;;;;;;;1.85;0.77;;;;;;;;;;5071991;28;20029;-81
2021/11/29 13:42:30;;;;;;;2.05;1.20;;;;;;;;;;5072064;28;20032;-76
2021/11/29 13:44:56;;;;;;;1.92;1.10;;;;;;;;;;5080682;28;20035;-83
2021/11/29 13:47:24;;;;;;;36.70;25.42;;;;;;;;;;5092449;28;20032;-82
2021/11/29 13:50:13;;;;;;;3.47;2.42;;;;;;;;;;5091675;28;20024;-83
2021/11/29 13:52:41;;;;;;;4.80;2.30;;;;;;;;;;5083086;28;20036;-83
2021/11/29 13:55:08;;;;;;;2.35;1.15;;;;;;;;;;5091802;28;20068;-81
2021/11/29 13:57:53;;;;;;;3.33;1.20;;;;;;;;;;5092702;28;20020;-84
2021/11/29 14:00:19;;;;;;;;;;;;;;;;;;5092910;28;20486;-85
2021/11/29 14:02:46;;;;;;;4.47;1.80;;;;;;;;;;5090811;28;19947;-82
2021/11/29 14:05:13;;;;;;;1.73;0.70;;;;;;;;;;5090756;28;20031;-86
2021/11/29 14:07:52;;;;;;;2.90;0.90;;;;;;;;;;5079177;28;20112;-82
2021/11/29 14:10:28;;;;;;;5.50;1.75;;;;;;;;;;5079919;28;20024;-85
2021/11/29 14:12:54;;;;;;;1.42;0.40;;;;;;;;;;5094556;28;20024;-83
2021/11/29 14:21:54;;;;;;;0.80;0.50;;;;;;;;;;5089344;28;20035;-83
2021/11/29 14:24:23;;;;;;;1.42;0.93;;;;;;;;;;5095716;28;20032;-82
2021/11/29 14:26:57;;;;;;;2.42;1.70;;;;;;;;;;5095793;28;20024;-82
2021/11/29 14:29:44;;;;;;;2.28;1.08;;;;;;;;;;5094793;28;20034;-83
2021/11/29 14:32:29;;;;;;;4.15;1.33;;;;;;;;;;5094905;28;20139;-82
2021/11/29 14:34:59;;;;;;;;;;;;;;;;;;5095768;28;20031;-81
2021/11/29 14:37:27;;;;;;;3.05;0.40;;;;;;;;;;5096141;28;19908;-83
2021/11/29 14:39:58;;;;;;;1.92;0.52;;;;;;;;;;5095565;28;20023;-83
2021/11/29 14:42:26;;;;;;;5.93;3.50;;;;;;;;;;5095818;28;20067;-83
2021/11/29 14:44:57;;;;;;;3.05;1.75;;;;;;;;;;5094302;28;20031;-84
2021/11/29 14:47:25;;;;;;;1.10;0.55;;;;;;;;;;5095560;28;20024;-83
2021/11/29 14:50:12;;;;;;;2.40;1.20;;;;;;;;;;5095659;28;20060;-85
2021/11/29 14:52:46;;;;;;;3.47;1.70;;;;;;;;;;5088646;28;20039;-84